sensor_id;sensor_type;location;lat;lon;timestamp;pressure;altitude;pressure_sealevel;temperature;humidity
44663;BME280;30381;52.754;18.258;2023-02-03T00:00:58;101281.98;;;-2.35;100.00
44663;BME280;30381;52.754;18.258;2023-02-03T00:04:45;101287.50;;;-2.36;100.00
44663;BME280;30381;52.754;18.258;2023-02-03T00:08:33;101293.59;;;-2.39;100.00
44663;BME280;30381;52.754;18.258;2023-02-03T00:17:40;101287.14;;;-2.42;100.00
44663;BME280;30381;52.754;18.258;2023-02-03T00:23:13;101281.89;;;-2.42;100.00
44663;BME280;30381;52.754;18.258;2023-02-03T00:26:21;101279.75;;;-2.44;100.00
44663;BME280;30381;52.754;18.258;2023-02-03T00:29:57;101278.09;;;-2.45;100.00
44663;BME280;30381;52.754;18.258;2023-02-03T00:38:58;101264.80;;;-2.47;100.00
44663;BME280;30381;52.754;18.258;2023-02-03T00:42:05;101259.05;;;-2.47;100.00
44663;BME280;30381;52.754;18.258;2023-02-03T00:44:42;101259.96;;;-2.48;100.00
44663;BME280;30381;52.754;18.258;2023-02-03T00:47:54;101257.23;;;-2.49;100.00
44663;BME280;30381;52.754;18.258;2023-02-03T00:50:35;101254.81;;;-2.49;100.00
44663;BME280;30381;52.754;18.258;2023-02-03T00:53:22;101247.61;;;-2.52;100.00
44663;BME280;30381;52.754;18.258;2023-02-03T00:56:12;101248.72;;;-2.52;100.00
44663;BME280;30381;52.754;18.258;2023-02-03T00:59:25;101248.00;;;-2.52;100.00
44663;BME280;30381;52.754;18.258;2023-02-03T01:01:54;101245.19;;;-2.52;100.00
44663;BME280;30381;52.754;18.258;2023-02-03T01:05:05;101238.89;;;-2.53;100.00
44663;BME280;30381;52.754;18.258;2023-02-03T01:07:37;101233.59;;;-2.53;100.00
44663;BME280;30381;52.754;18.258;2023-02-03T01:10:08;101229.35;;;-2.53;100.00
44663;BME280;30381;52.754;18.258;2023-02-03T01:12:45;101227.73;;;-2.53;100.00
44663;BME280;30381;52.754;18.258;2023-02-03T01:15:17;101223.77;;;-2.54;100.00
44663;BME280;30381;52.754;18.258;2023-02-03T01:17:45;101227.34;;;-2.54;100.00
44663;BME280;30381;52.754;18.258;2023-02-03T01:20:15;101233.90;;;-2.54;100.00
44663;BME280;30381;52.754;18.258;2023-02-03T01:22:51;101236.83;;;-2.53;100.00
44663;BME280;30381;52.754;18.258;2023-02-03T01:25:20;101231.78;;;-2.54;100.00
44663;BME280;30381;52.754;18.258;2023-02-03T01:27:53;101234.29;;;-2.55;100.00
44663;BME280;30381;52.754;18.258;2023-02-03T01:30:25;101227.94;;;-2.55;100.00
44663;BME280;30381;52.754;18.258;2023-02-03T01:32:55;101221.91;;;-2.54;100.00
44663;BME280;30381;52.754;18.258;2023-02-03T01:35:44;101210.95;;;-2.54;100.00
44663;BME280;30381;52.754;18.258;2023-02-03T01:38:12;101197.91;;;-2.52;100.00
44663;BME280;30381;52.754;18.258;2023-02-03T01:40:43;101192.14;;;-2.51;100.00
44663;BME280;30381;52.754;18.258;2023-02-03T01:43:28;101179.29;;;-2.52;100.00
44663;BME280;30381;52.754;18.258;2023-02-03T01:46:17;101174.50;;;-2.51;100.00
44663;BME280;30381;52.754;18.258;2023-02-03T01:48:48;101171.07;;;-2.51;100.00
44663;BME280;30381;52.754;18.258;2023-02-03T01:51:15;101167.76;;;-2.49;100.00
44663;BME280;30381;52.754;18.258;2023-02-03T01:53:44;101161.06;;;-2.49;100.00
44663;BME280;30381;52.754;18.258;2023-02-03T01:56:13;101162.02;;;-2.50;100.00
44663;BME280;30381;52.754;18.258;2023-02-03T01:58:41;101161.73;;;-2.51;100.00
44663;BME280;30381;52.754;18.258;2023-02-03T02:01:09;101159.23;;;-2.50;100.00
44663;BME280;30381;52.754;18.258;2023-02-03T02:03:42;101161.98;;;-2.48;100.00
44663;BME280;30381;52.754;18.258;2023-02-03T02:06:12;101171.16;;;-2.44;100.00
44663;BME280;30381;52.754;18.258;2023-02-03T02:08:47;101169.02;;;-2.40;100.00
44663;BME280;30381;52.754;18.258;2023-02-03T02:11:15;101173.02;;;-2.37;100.00
44663;BME280;30381;52.754;18.258;2023-02-03T02:13:44;101181.14;;;-2.34;100.00
44663;BME280;30381;52.754;18.258;2023-02-03T02:21:47;101168.28;;;-2.28;100.00
44663;BME280;30381;52.754;18.258;2023-02-03T02:36:12;101104.36;;;-2.28;100.00
44663;BME280;30381;52.754;18.258;2023-02-03T02:38:59;101093.16;;;-2.29;100.00
44663;BME280;30381;52.754;18.258;2023-02-03T02:41:49;101091.65;;;-2.28;100.00
44663;BME280;30381;52.754;18.258;2023-02-03T02:44:24;101083.37;;;-2.29;100.00
44663;BME280;30381;52.754;18.258;2023-02-03T02:47:01;101079.99;;;-2.28;100.00
44663;BME280;30381;52.754;18.258;2023-02-03T02:49:41;101080.83;;;-2.28;100.00
44663;BME280;30381;52.754;18.258;2023-02-03T02:52:12;101076.33;;;-2.27;100.00
44663;BME280;30381;52.754;18.258;2023-02-03T02:54:46;101070.97;;;-2.28;100.00
44663;BME280;30381;52.754;18.258;2023-02-03T02:57:16;101070.62;;;-2.30;100.00
44663;BME280;30381;52.754;18.258;2023-02-03T02:59:48;101065.95;;;-2.31;100.00
44663;BME280;30381;52.754;18.258;2023-02-03T03:02:21;101067.38;;;-2.31;100.00
44663;BME280;30381;52.754;18.258;2023-02-03T03:04:49;101061.36;;;-2.31;100.00
44663;BME280;30381;52.754;18.258;2023-02-03T03:07:21;101060.64;;;-2.31;100.00
44663;BME280;30381;52.754;18.258;2023-02-03T03:09:55;101054.95;;;-2.30;100.00
44663;BME280;30381;52.754;18.258;2023-02-03T03:12:33;101055.20;;;-2.29;100.00
44663;BME280;30381;52.754;18.258;2023-02-03T03:15:14;101056.10;;;-2.28;100.00
44663;BME280;30381;52.754;18.258;2023-02-03T03:17:52;101060.59;;;-2.27;100.00
44663;BME280;30381;52.754;18.258;2023-02-03T03:20:24;101057.95;;;-2.25;100.00
44663;BME280;30381;52.754;18.258;2023-02-03T03:23:04;101061.80;;;-2.23;100.00
44663;BME280;30381;52.754;18.258;2023-02-03T03:31:18;101057.76;;;-2.15;100.00
44663;BME280;30381;52.754;18.258;2023-02-03T03:33:46;101049.23;;;-2.13;100.00
44663;BME280;30381;52.754;18.258;2023-02-03T03:41:56;101036.21;;;-2.09;100.00
44663;BME280;30381;52.754;18.258;2023-02-03T03:44:31;101032.70;;;-2.08;100.00
44663;BME280;30381;52.754;18.258;2023-02-03T03:47:18;101026.46;;;-2.07;100.00
44663;BME280;30381;52.754;18.258;2023-02-03T03:49:49;101021.39;;;-2.06;100.00
44663;BME280;30381;52.754;18.258;2023-02-03T03:52:22;101016.01;;;-2.05;100.00
44663;BME280;30381;52.754;18.258;2023-02-03T03:54:53;101011.89;;;-2.05;100.00
44663;BME280;30381;52.754;18.258;2023-02-03T03:57:27;101007.84;;;-2.03;100.00
44663;BME280;30381;52.754;18.258;2023-02-03T03:59:56;101004.72;;;-2.02;100.00
44663;BME280;30381;52.754;18.258;2023-02-03T04:02:25;100997.85;;;-2.02;100.00
44663;BME280;30381;52.754;18.258;2023-02-03T04:04:53;100998.22;;;-2.00;100.00
44663;BME280;30381;52.754;18.258;2023-02-03T04:07:21;100997.92;;;-1.99;100.00
44663;BME280;30381;52.754;18.258;2023-02-03T04:09:47;100989.45;;;-1.99;100.00
44663;BME280;30381;52.754;18.258;2023-02-03T04:12:32;100990.77;;;-1.98;100.00
44663;BME280;30381;52.754;18.258;2023-02-03T04:14:59;100983.63;;;-1.97;100.00
44663;BME280;30381;52.754;18.258;2023-02-03T04:17:26;100983.04;;;-1.97;100.00
44663;BME280;30381;52.754;18.258;2023-02-03T04:19:53;100987.48;;;-1.97;100.00
44663;BME280;30381;52.754;18.258;2023-02-03T04:22:20;100981.02;;;-1.96;100.00
44663;BME280;30381;52.754;18.258;2023-02-03T04:24:47;100975.87;;;-1.95;100.00
44663;BME280;30381;52.754;18.258;2023-02-03T04:27:14;100974.77;;;-1.95;100.00
44663;BME280;30381;52.754;18.258;2023-02-03T04:29:41;100969.98;;;-1.95;100.00
44663;BME280;30381;52.754;18.258;2023-02-03T04:32:08;100963.58;;;-1.94;100.00
44663;BME280;30381;52.754;18.258;2023-02-03T04:34:37;100955.39;;;-1.94;100.00
44663;BME280;30381;52.754;18.258;2023-02-03T04:37:04;100953.55;;;-1.93;100.00
44663;BME280;30381;52.754;18.258;2023-02-03T04:39:31;100948.63;;;-1.93;100.00
44663;BME280;30381;52.754;18.258;2023-02-03T04:41:58;100943.42;;;-1.93;100.00
44663;BME280;30381;52.754;18.258;2023-02-03T04:44:25;100936.15;;;-1.92;100.00
44663;BME280;30381;52.754;18.258;2023-02-03T04:46:51;100934.54;;;-1.92;100.00
44663;BME280;30381;52.754;18.258;2023-02-03T04:49:18;100933.94;;;-1.92;100.00
44663;BME280;30381;52.754;18.258;2023-02-03T04:51:47;100932.46;;;-1.91;100.00
44663;BME280;30381;52.754;18.258;2023-02-03T04:54:14;100930.68;;;-1.91;100.00
44663;BME280;30381;52.754;18.258;2023-02-03T04:56:42;100930.09;;;-1.90;100.00
44663;BME280;30381;52.754;18.258;2023-02-03T04:59:09;100925.75;;;-1.89;100.00
44663;BME280;30381;52.754;18.258;2023-02-03T05:01:36;100927.25;;;-1.88;100.00
44663;BME280;30381;52.754;18.258;2023-02-03T05:04:03;100920.00;;;-1.88;100.00
44663;BME280;30381;52.754;18.258;2023-02-03T05:06:29;100907.45;;;-1.88;100.00
44663;BME280;30381;52.754;18.258;2023-02-03T05:08:58;100901.73;;;-1.87;100.00
44663;BME280;30381;52.754;18.258;2023-02-03T05:11:26;100898.04;;;-1.88;100.00
44663;BME280;30381;52.754;18.258;2023-02-03T05:13:53;100898.81;;;-1.87;100.00
44663;BME280;30381;52.754;18.258;2023-02-03T05:16:23;100896.92;;;-1.87;100.00
44663;BME280;30381;52.754;18.258;2023-02-03T05:18:50;100895.59;;;-1.86;100.00
44663;BME280;30381;52.754;18.258;2023-02-03T05:21:17;100890.59;;;-1.85;100.00
44663;BME280;30381;52.754;18.258;2023-02-03T05:23:44;100880.00;;;-1.86;100.00
44663;BME280;30381;52.754;18.258;2023-02-03T05:26:11;100872.90;;;-1.85;100.00
44663;BME280;30381;52.754;18.258;2023-02-03T05:28:38;100868.05;;;-1.85;100.00
44663;BME280;30381;52.754;18.258;2023-02-03T05:31:05;100862.32;;;-1.84;100.00
44663;BME280;30381;52.754;18.258;2023-02-03T05:33:32;100857.48;;;-1.83;100.00
44663;BME280;30381;52.754;18.258;2023-02-03T05:35:59;100853.92;;;-1.83;100.00
44663;BME280;30381;52.754;18.258;2023-02-03T05:38:26;100849.54;;;-1.83;100.00
44663;BME280;30381;52.754;18.258;2023-02-03T05:40:53;100842.76;;;-1.83;100.00
44663;BME280;30381;52.754;18.258;2023-02-03T05:43:38;100838.51;;;-1.83;100.00
44663;BME280;30381;52.754;18.258;2023-02-03T05:46:06;100835.14;;;-1.82;100.00
44663;BME280;30381;52.754;18.258;2023-02-03T05:48:33;100828.08;;;-1.83;100.00
44663;BME280;30381;52.754;18.258;2023-02-03T05:51:00;100819.31;;;-1.81;100.00
44663;BME280;30381;52.754;18.258;2023-02-03T05:53:27;100815.44;;;-1.82;100.00
44663;BME280;30381;52.754;18.258;2023-02-03T05:55:54;100813.42;;;-1.81;100.00
44663;BME280;30381;52.754;18.258;2023-02-03T05:58:20;100799.73;;;-1.80;100.00
44663;BME280;30381;52.754;18.258;2023-02-03T06:00:47;100797.66;;;-1.80;100.00
44663;BME280;30381;52.754;18.258;2023-02-03T06:03:14;100796.73;;;-1.80;100.00
44663;BME280;30381;52.754;18.258;2023-02-03T06:05:41;100792.05;;;-1.79;100.00
44663;BME280;30381;52.754;18.258;2023-02-03T06:08:09;100786.19;;;-1.79;100.00
44663;BME280;30381;52.754;18.258;2023-02-03T06:10:36;100780.73;;;-1.78;100.00
44663;BME280;30381;52.754;18.258;2023-02-03T06:13:12;100774.38;;;-1.76;100.00
44663;BME280;30381;52.754;18.258;2023-02-03T06:15:40;100765.72;;;-1.74;100.00
44663;BME280;30381;52.754;18.258;2023-02-03T06:18:07;100756.22;;;-1.72;100.00
44663;BME280;30381;52.754;18.258;2023-02-03T06:20:34;100752.11;;;-1.70;100.00
44663;BME280;30381;52.754;18.258;2023-02-03T06:23:01;100747.34;;;-1.68;100.00
44663;BME280;30381;52.754;18.258;2023-02-03T06:25:27;100747.08;;;-1.66;100.00
44663;BME280;30381;52.754;18.258;2023-02-03T06:27:55;100738.66;;;-1.63;100.00
44663;BME280;30381;52.754;18.258;2023-02-03T06:30:21;100730.66;;;-1.61;100.00
44663;BME280;30381;52.754;18.258;2023-02-03T06:32:49;100724.11;;;-1.59;100.00
44663;BME280;30381;52.754;18.258;2023-02-03T06:35:17;100717.51;;;-1.57;100.00
44663;BME280;30381;52.754;18.258;2023-02-03T06:37:44;100709.89;;;-1.50;100.00
44663;BME280;30381;52.754;18.258;2023-02-03T06:40:11;100702.96;;;-1.44;100.00
44663;BME280;30381;52.754;18.258;2023-02-03T06:42:38;100695.77;;;-1.43;100.00
44663;BME280;30381;52.754;18.258;2023-02-03T06:45:05;100695.23;;;-1.41;100.00
44663;BME280;30381;52.754;18.258;2023-02-03T06:47:38;100693.58;;;-1.39;100.00
44663;BME280;30381;52.754;18.258;2023-02-03T06:50:05;100685.99;;;-1.38;100.00
44663;BME280;30381;52.754;18.258;2023-02-03T06:52:33;100681.38;;;-1.36;100.00
44663;BME280;30381;52.754;18.258;2023-02-03T06:54:59;100670.39;;;-1.34;100.00
44663;BME280;30381;52.754;18.258;2023-02-03T06:57:26;100664.15;;;-1.32;100.00
44663;BME280;30381;52.754;18.258;2023-02-03T06:59:53;100653.19;;;-1.30;100.00
44663;BME280;30381;52.754;18.258;2023-02-03T07:02:21;100642.27;;;-1.27;100.00
44663;BME280;30381;52.754;18.258;2023-02-03T07:04:48;100635.89;;;-1.25;100.00
44663;BME280;30381;52.754;18.258;2023-02-03T07:07:15;100636.48;;;-1.22;100.00
44663;BME280;30381;52.754;18.258;2023-02-03T07:09:42;100635.14;;;-1.21;100.00
44663;BME280;30381;52.754;18.258;2023-02-03T07:12:09;100628.55;;;-1.17;100.00
44663;BME280;30381;52.754;18.258;2023-02-03T07:14:36;100622.86;;;-1.14;100.00
44663;BME280;30381;52.754;18.258;2023-02-03T07:17:05;100620.69;;;-1.12;100.00
44663;BME280;30381;52.754;18.258;2023-02-03T07:19:32;100613.38;;;-1.08;100.00
44663;BME280;30381;52.754;18.258;2023-02-03T07:21:59;100607.17;;;-1.05;100.00
44663;BME280;30381;52.754;18.258;2023-02-03T07:24:26;100605.92;;;-1.00;100.00
44663;BME280;30381;52.754;18.258;2023-02-03T07:26:53;100599.87;;;-0.96;100.00
44663;BME280;30381;52.754;18.258;2023-02-03T07:29:20;100590.16;;;-0.93;100.00
44663;BME280;30381;52.754;18.258;2023-02-03T07:31:47;100589.36;;;-0.89;100.00
44663;BME280;30381;52.754;18.258;2023-02-03T07:34:13;100587.02;;;-0.85;100.00
44663;BME280;30381;52.754;18.258;2023-02-03T07:36:40;100579.83;;;-0.82;100.00
44663;BME280;30381;52.754;18.258;2023-02-03T07:39:07;100572.73;;;-0.78;100.00
44663;BME280;30381;52.754;18.258;2023-02-03T07:41:36;100562.55;;;-0.74;100.00
44663;BME280;30381;52.754;18.258;2023-02-03T07:44:06;100558.20;;;-0.70;100.00
44663;BME280;30381;52.754;18.258;2023-02-03T07:46:35;100554.05;;;-0.67;100.00
44663;BME280;30381;52.754;18.258;2023-02-03T07:49:05;100543.23;;;-0.63;100.00
44663;BME280;30381;52.754;18.258;2023-02-03T07:51:32;100536.86;;;-0.60;100.00
44663;BME280;30381;52.754;18.258;2023-02-03T07:54:03;100533.58;;;-0.57;100.00
44663;BME280;30381;52.754;18.258;2023-02-03T07:56:33;100532.92;;;-0.56;100.00
44663;BME280;30381;52.754;18.258;2023-02-03T07:59:00;100527.54;;;-0.57;100.00
44663;BME280;30381;52.754;18.258;2023-02-03T08:01:27;100520.20;;;-0.58;100.00
44663;BME280;30381;52.754;18.258;2023-02-03T08:03:53;100515.78;;;-0.58;100.00
44663;BME280;30381;52.754;18.258;2023-02-03T08:06:20;100509.35;;;-0.56;100.00
44663;BME280;30381;52.754;18.258;2023-02-03T08:08:50;100500.34;;;-0.53;100.00
44663;BME280;30381;52.754;18.258;2023-02-03T08:11:19;100494.52;;;-0.50;100.00
44663;BME280;30381;52.754;18.258;2023-02-03T08:13:46;100485.21;;;-0.49;100.00
44663;BME280;30381;52.754;18.258;2023-02-03T08:16:13;100477.95;;;-0.48;100.00
44663;BME280;30381;52.754;18.258;2023-02-03T08:18:40;100468.71;;;-0.42;100.00
44663;BME280;30381;52.754;18.258;2023-02-03T08:21:07;100465.55;;;-0.36;100.00
44663;BME280;30381;52.754;18.258;2023-02-03T08:23:34;100464.11;;;-0.33;100.00
44663;BME280;30381;52.754;18.258;2023-02-03T08:26:04;100451.77;;;-0.31;100.00
44663;BME280;30381;52.754;18.258;2023-02-03T08:28:33;100442.89;;;-0.31;100.00
44663;BME280;30381;52.754;18.258;2023-02-03T08:31:00;100434.42;;;-0.30;100.00
44663;BME280;30381;52.754;18.258;2023-02-03T08:33:27;100427.73;;;-0.27;100.00
44663;BME280;30381;52.754;18.258;2023-02-03T08:35:54;100418.98;;;-0.24;100.00
44663;BME280;30381;52.754;18.258;2023-02-03T08:38:35;100407.22;;;-0.20;100.00
44663;BME280;30381;52.754;18.258;2023-02-03T08:41:14;100408.09;;;-0.15;100.00
44663;BME280;30381;52.754;18.258;2023-02-03T08:43:44;100397.58;;;-0.10;100.00
44663;BME280;30381;52.754;18.258;2023-02-03T08:46:11;100389.33;;;-0.08;100.00
44663;BME280;30381;52.754;18.258;2023-02-03T08:48:39;100376.20;;;-0.08;100.00
44663;BME280;30381;52.754;18.258;2023-02-03T08:51:11;100364.14;;;-0.07;100.00
44663;BME280;30381;52.754;18.258;2023-02-03T08:53:39;100360.39;;;-0.07;100.00
44663;BME280;30381;52.754;18.258;2023-02-03T08:56:07;100360.55;;;-0.05;100.00
44663;BME280;30381;52.754;18.258;2023-02-03T08:58:38;100345.61;;;-0.06;100.00
44663;BME280;30381;52.754;18.258;2023-02-03T09:01:14;100337.04;;;-0.09;100.00
44663;BME280;30381;52.754;18.258;2023-02-03T09:03:41;100329.09;;;-0.09;100.00
44663;BME280;30381;52.754;18.258;2023-02-03T09:06:09;100319.36;;;-0.06;100.00
44663;BME280;30381;52.754;18.258;2023-02-03T09:08:38;100315.58;;;-0.03;100.00
44663;BME280;30381;52.754;18.258;2023-02-03T09:11:11;100304.14;;;-0.02;100.00
44663;BME280;30381;52.754;18.258;2023-02-03T09:13:42;100297.14;;;-0.01;100.00
44663;BME280;30381;52.754;18.258;2023-02-03T09:16:16;100286.71;;;0.02;100.00
44663;BME280;30381;52.754;18.258;2023-02-03T09:18:44;100275.84;;;0.03;100.00
44663;BME280;30381;52.754;18.258;2023-02-03T09:21:13;100267.14;;;0.01;100.00
44663;BME280;30381;52.754;18.258;2023-02-03T09:23:42;100259.16;;;0.03;100.00
44663;BME280;30381;52.754;18.258;2023-02-03T09:26:13;100251.67;;;0.05;100.00
44663;BME280;30381;52.754;18.258;2023-02-03T09:28:41;100248.25;;;0.08;100.00
44663;BME280;30381;52.754;18.258;2023-02-03T09:31:13;100239.21;;;0.13;100.00
44663;BME280;30381;52.754;18.258;2023-02-03T09:33:40;100229.41;;;0.16;100.00
44663;BME280;30381;52.754;18.258;2023-02-03T09:36:07;100221.71;;;0.20;100.00
44663;BME280;30381;52.754;18.258;2023-02-03T09:38:34;100206.48;;;0.21;100.00
44663;BME280;30381;52.754;18.258;2023-02-03T09:43:48;100188.45;;;0.25;100.00
44663;BME280;30381;52.754;18.258;2023-02-03T09:46:25;100178.27;;;0.29;100.00
44663;BME280;30381;52.754;18.258;2023-02-03T09:52:03;100164.05;;;0.26;100.00
44663;BME280;30381;52.754;18.258;2023-02-03T09:54:57;100152.70;;;0.28;100.00
44663;BME280;30381;52.754;18.258;2023-02-03T09:57:35;100143.02;;;0.29;100.00
44663;BME280;30381;52.754;18.258;2023-02-03T10:00:22;100130.02;;;0.29;100.00
44663;BME280;30381;52.754;18.258;2023-02-03T10:03:02;100125.05;;;0.26;100.00
44663;BME280;30381;52.754;18.258;2023-02-03T10:10:37;100096.23;;;0.14;100.00
44663;BME280;30381;52.754;18.258;2023-02-03T10:18:59;100063.10;;;0.06;100.00
44663;BME280;30381;52.754;18.258;2023-02-03T10:21:37;100050.21;;;0.06;100.00
44663;BME280;30381;52.754;18.258;2023-02-03T10:24:11;100034.85;;;0.04;100.00
44663;BME280;30381;52.754;18.258;2023-02-03T10:26:39;100030.92;;;0.01;100.00
44663;BME280;30381;52.754;18.258;2023-02-03T10:29:17;100017.70;;;-0.01;100.00
44663;BME280;30381;52.754;18.258;2023-02-03T10:31:44;100003.27;;;0.01;100.00
44663;BME280;30381;52.754;18.258;2023-02-03T10:34:15;99987.66;;;0.04;100.00
44663;BME280;30381;52.754;18.258;2023-02-03T10:36:54;99973.13;;;0.06;100.00
44663;BME280;30381;52.754;18.258;2023-02-03T10:39:44;99964.28;;;0.11;100.00
44663;BME280;30381;52.754;18.258;2023-02-03T10:42:12;99948.96;;;0.22;100.00
44663;BME280;30381;52.754;18.258;2023-02-03T10:44:44;99937.98;;;0.33;100.00
44663;BME280;30381;52.754;18.258;2023-02-03T10:47:40;99923.61;;;0.41;100.00
44663;BME280;30381;52.754;18.258;2023-02-03T10:50:18;99910.45;;;0.46;100.00
44663;BME280;30381;52.754;18.258;2023-02-03T10:52:46;99902.11;;;0.50;100.00
44663;BME280;30381;52.754;18.258;2023-02-03T10:55:33;99883.66;;;0.54;100.00
44663;BME280;30381;52.754;18.258;2023-02-03T10:58:05;99877.91;;;0.59;100.00
44663;BME280;30381;52.754;18.258;2023-02-03T11:00:36;99873.16;;;0.60;100.00
44663;BME280;30381;52.754;18.258;2023-02-03T11:03:06;99868.61;;;0.59;100.00
44663;BME280;30381;52.754;18.258;2023-02-03T11:05:34;99859.33;;;0.53;100.00
44663;BME280;30381;52.754;18.258;2023-02-03T11:08:01;99850.56;;;0.48;100.00
44663;BME280;30381;52.754;18.258;2023-02-03T11:10:34;99840.02;;;0.44;100.00
44663;BME280;30381;52.754;18.258;2023-02-03T11:13:12;99828.57;;;0.41;100.00
44663;BME280;30381;52.754;18.258;2023-02-03T11:15:52;99819.05;;;0.35;100.00
44663;BME280;30381;52.754;18.258;2023-02-03T11:20:56;99787.30;;;0.25;100.00
44663;BME280;30381;52.754;18.258;2023-02-03T11:23:24;99777.80;;;0.26;100.00
44663;BME280;30381;52.754;18.258;2023-02-03T11:25:51;99766.78;;;0.27;100.00
44663;BME280;30381;52.754;18.258;2023-02-03T11:28:18;99762.42;;;0.30;100.00
44663;BME280;30381;52.754;18.258;2023-02-03T11:30:54;99757.23;;;0.29;100.00
44663;BME280;30381;52.754;18.258;2023-02-03T11:33:45;99752.12;;;0.27;100.00
44663;BME280;30381;52.754;18.258;2023-02-03T11:36:13;99744.66;;;0.24;100.00
44663;BME280;30381;52.754;18.258;2023-02-03T11:38:40;99736.82;;;0.22;100.00
44663;BME280;30381;52.754;18.258;2023-02-03T11:41:18;99727.19;;;0.19;100.00
44663;BME280;30381;52.754;18.258;2023-02-03T11:43:46;99720.70;;;0.18;100.00
44663;BME280;30381;52.754;18.258;2023-02-03T11:46:14;99714.91;;;0.16;100.00
44663;BME280;30381;52.754;18.258;2023-02-03T11:48:59;99705.23;;;0.12;100.00
44663;BME280;30381;52.754;18.258;2023-02-03T11:59:45;99650.77;;;-0.05;100.00
44663;BME280;30381;52.754;18.258;2023-02-03T12:08:17;99613.77;;;-0.05;100.00
44663;BME280;30381;52.754;18.258;2023-02-03T12:14:12;99595.69;;;-0.02;100.00
44663;BME280;30381;52.754;18.258;2023-02-03T12:22:50;99569.11;;;-0.02;100.00
44663;BME280;30381;52.754;18.258;2023-02-03T12:25:35;99559.17;;;-0.02;100.00
44663;BME280;30381;52.754;18.258;2023-02-03T12:28:41;99552.16;;;0.01;100.00
44663;BME280;30381;52.754;18.258;2023-02-03T12:33:51;99543.41;;;0.07;100.00
44663;BME280;30381;52.754;18.258;2023-02-03T12:37:13;99533.25;;;0.11;100.00
44663;BME280;30381;52.754;18.258;2023-02-03T12:40:04;99527.52;;;0.18;100.00
44663;BME280;30381;52.754;18.258;2023-02-03T12:46:21;99516.77;;;0.29;100.00
44663;BME280;30381;52.754;18.258;2023-02-03T12:52:44;99502.49;;;0.39;100.00
44663;BME280;30381;52.754;18.258;2023-02-03T12:56:10;99492.61;;;0.45;100.00
44663;BME280;30381;52.754;18.258;2023-02-03T12:59:36;99488.18;;;0.49;100.00
44663;BME280;30381;52.754;18.258;2023-02-03T14:20:44;99395.67;;;2.16;100.00
44663;BME280;30381;52.754;18.258;2023-02-03T14:23:25;99396.00;;;2.16;100.00
44663;BME280;30381;52.754;18.258;2023-02-03T14:25:57;99396.61;;;2.16;100.00
44663;BME280;30381;52.754;18.258;2023-02-03T14:28:45;99395.14;;;2.16;100.00
44663;BME280;30381;52.754;18.258;2023-02-03T14:31:16;99399.08;;;2.15;100.00
44663;BME280;30381;52.754;18.258;2023-02-03T14:36:50;99397.91;;;2.13;100.00
44663;BME280;30381;52.754;18.258;2023-02-03T14:39:36;99394.41;;;2.12;100.00
44663;BME280;30381;52.754;18.258;2023-02-03T14:53:05;99405.86;;;2.12;100.00
44663;BME280;30381;52.754;18.258;2023-02-03T14:58:33;99415.42;;;2.09;100.00
44663;BME280;30381;52.754;18.258;2023-02-03T15:01:04;99414.83;;;2.08;100.00
44663;BME280;30381;52.754;18.258;2023-02-03T15:03:33;99416.88;;;2.05;100.00
44663;BME280;30381;52.754;18.258;2023-02-03T15:06:03;99419.02;;;2.04;100.00
44663;BME280;30381;52.754;18.258;2023-02-03T15:08:41;99421.98;;;2.02;100.00
44663;BME280;30381;52.754;18.258;2023-02-03T15:13:56;99423.33;;;1.99;100.00
44663;BME280;30381;52.754;18.258;2023-02-03T15:16:41;99425.48;;;1.96;100.00
44663;BME280;30381;52.754;18.258;2023-02-03T15:19:21;99431.96;;;1.94;100.00
44663;BME280;30381;52.754;18.258;2023-02-03T15:21:48;99437.59;;;1.92;100.00
44663;BME280;30381;52.754;18.258;2023-02-03T15:24:35;99435.73;;;1.90;100.00
44663;BME280;30381;52.754;18.258;2023-02-03T15:27:04;99438.40;;;1.90;100.00
44663;BME280;30381;52.754;18.258;2023-02-03T15:33:14;99445.55;;;1.88;100.00
44663;BME280;30381;52.754;18.258;2023-02-03T15:36:40;99448.86;;;1.90;100.00
44663;BME280;30381;52.754;18.258;2023-02-03T15:42:03;99455.84;;;1.94;100.00
44663;BME280;30381;52.754;18.258;2023-02-03T15:44:39;99461.89;;;1.95;100.00
44663;BME280;30381;52.754;18.258;2023-02-03T15:47:47;99467.06;;;1.95;100.00
44663;BME280;30381;52.754;18.258;2023-02-03T15:53:02;99468.10;;;1.94;100.00
44663;BME280;30381;52.754;18.258;2023-02-03T15:58:02;99469.86;;;1.94;100.00
44663;BME280;30381;52.754;18.258;2023-02-03T16:00:34;99469.83;;;1.93;100.00
44663;BME280;30381;52.754;18.258;2023-02-03T16:03:17;99469.41;;;1.93;100.00
44663;BME280;30381;52.754;18.258;2023-02-03T16:05:47;99474.10;;;1.93;100.00
44663;BME280;30381;52.754;18.258;2023-02-03T16:08:35;99477.79;;;1.93;100.00
44663;BME280;30381;52.754;18.258;2023-02-03T16:11:28;99483.81;;;1.93;100.00
44663;BME280;30381;52.754;18.258;2023-02-03T16:13:59;99487.83;;;1.93;100.00
44663;BME280;30381;52.754;18.258;2023-02-03T16:16:39;99493.20;;;1.92;100.00
44663;BME280;30381;52.754;18.258;2023-02-03T16:19:43;99496.16;;;1.93;100.00
44663;BME280;30381;52.754;18.258;2023-02-03T16:23:14;99497.11;;;1.94;100.00
44663;BME280;30381;52.754;18.258;2023-02-03T16:26:24;99503.34;;;1.94;100.00
44663;BME280;30381;52.754;18.258;2023-02-03T16:37:42;99525.81;;;1.93;100.00
44663;BME280;30381;52.754;18.258;2023-02-03T16:44:21;99538.77;;;1.94;100.00
44663;BME280;30381;52.754;18.258;2023-02-03T16:48:17;99543.89;;;1.94;100.00
44663;BME280;30381;52.754;18.258;2023-02-03T16:58:30;99560.88;;;1.98;100.00
44663;BME280;30381;52.754;18.258;2023-02-03T17:04:56;99568.05;;;1.97;100.00